Time;durP1;ratioP1;P1;durP2;ratioP2;P2;SDS_P1;SDS_P2;PMS_P1;PMS_P2;Temp;Humidity;BMP_temperature;BMP_pressure;BME280_temperature;BME280_humidity;BME280_pressure;Samples;Min_cycle;Max_cycle;Signal;HPM_P1;HPM_P2
2023/12/26 00:00:56;;;;;;;1.42;0.70;;;;;;;8.50;100.00;98525.91;5036410;28;20029;-74
2023/12/26 00:03:22;;;;;;;1.67;0.70;;;;;;;8.56;100.00;98542.13;5031977;28;20025;-74
2023/12/26 00:05:47;;;;;;;4.60;1.23;;;;;;;8.47;100.00;98529.84;5032239;28;20053;-74
2023/12/26 00:08:12;;;;;;;2.78;0.73;;;;;;;8.56;100.00;98544.00;5044226;28;20033;-73
2023/12/26 00:10:38;;;;;;;2.17;0.65;;;;;;;8.62;100.00;98536.97;5052320;28;20071;-73
2023/12/26 00:13:04;;;;;;;2.95;0.90;;;;;;;8.63;100.00;98539.50;5043095;28;20084;-75
2023/12/26 00:15:29;;;;;;;3.28;0.80;;;;;;;8.62;100.00;98554.00;5031304;28;20108;-73
2023/12/26 00:17:54;;;;;;;1.45;0.70;;;;;;;8.65;100.00;98542.00;5029758;28;20117;-73
2023/12/26 00:20:19;;;;;;;4.85;1.20;;;;;;;8.55;100.00;98531.56;5034626;28;20028;-74
2023/12/26 00:22:45;;;;;;;4.13;1.00;;;;;;;8.62;100.00;98536.97;5037593;28;20023;-74
2023/12/26 00:25:11;;;;;;;2.95;0.70;;;;;;;8.41;100.00;98510.91;5039703;28;20033;-73
2023/12/26 00:27:38;;;;;;;2.88;0.90;;;;;;;8.60;100.00;98536.38;5033327;28;20506;-73
2023/12/26 00:30:04;;;;;;;1.83;0.85;;;;;;;8.39;100.00;98505.72;5032552;28;20112;-73
2023/12/26 00:32:30;;;;;;;2.80;1.05;;;;;;;8.51;100.00;98531.13;5020606;28;20029;-72
2023/12/26 00:34:57;;;;;;;1.70;0.77;;;;;;;8.46;100.00;98513.84;5030441;28;20498;-73
2023/12/26 00:37:22;;;;;;;2.30;0.70;;;;;;;8.59;100.00;98538.19;5032983;28;20033;-73
2023/12/26 00:39:47;;;;;;;4.18;1.02;;;;;;;8.53;100.00;98537.13;5027598;28;20320;-74
2023/12/26 00:42:12;;;;;;;2.13;0.80;;;;;;;8.50;100.00;98532.13;5017845;28;20064;-73
2023/12/26 00:44:38;;;;;;;1.55;0.68;;;;;;;8.42;100.00;98516.13;5031592;28;20438;-73
2023/12/26 00:47:03;;;;;;;4.32;1.05;;;;;;;8.56;100.00;98535.91;5031608;28;20025;-72
2023/12/26 00:49:28;;;;;;;2.20;0.88;;;;;;;8.61;100.00;98540.72;5032602;28;20040;-72
2023/12/26 00:51:54;;;;;;;4.88;1.00;;;;;;;8.49;100.00;98529.66;5032903;28;20026;-72
2023/12/26 00:54:19;;;;;;;1.77;1.10;;;;;;;8.35;100.00;98505.25;5025462;28;20032;-72
2023/12/26 00:56:44;;;;;;;3.85;1.05;;;;;;;8.54;100.00;98541.50;5031319;28;20533;-72
2023/12/26 00:59:09;;;;;;;2.28;0.88;;;;;;;8.47;100.00;98546.00;5031360;28;20040;-72
2023/12/26 01:01:35;;;;;;;3.10;1.00;;;;;;;8.46;100.00;98533.56;5031116;28;20052;-72
2023/12/26 01:04:00;;;;;;;4.38;1.15;;;;;;;8.48;100.00;98538.75;5031291;28;20022;-72
2023/12/26 01:06:25;;;;;;;3.60;0.73;;;;;;;8.56;100.00;98542.13;5031794;28;20025;-73
2023/12/26 01:08:51;;;;;;;4.78;1.00;;;;;;;8.50;100.00;98540.22;5027028;28;20057;-72
2023/12/26 01:11:16;;;;;;;2.13;0.80;;;;;;;8.41;100.00;98535.16;5032342;28;20032;-72
2023/12/26 01:13:41;;;;;;;2.10;1.08;;;;;;;8.51;100.00;98552.69;5031224;28;20060;-72
2023/12/26 01:16:07;;;;;;;4.15;1.40;;;;;;;8.48;100.00;98557.63;5029725;28;20022;-72
2023/12/26 01:18:32;;;;;;;3.65;1.00;;;;;;;8.45;100.00;98553.47;5032024;28;20334;-72
2023/12/26 01:20:58;;;;;;;3.42;1.00;;;;;;;8.40;100.00;98545.13;5031664;28;20034;-72
2023/12/26 01:23:23;;;;;;;5.50;1.00;;;;;;;8.53;100.00;98565.97;5029860;28;20067;-72
2023/12/26 01:25:49;;;;;;;3.97;1.00;;;;;;;8.42;100.00;98540.38;5032396;28;20471;-72
2023/12/26 01:28:15;;;;;;;2.45;0.93;;;;;;;8.56;100.00;98561.00;5031662;28;20045;-72
2023/12/26 01:30:41;;;;;;;3.85;1.08;;;;;;;8.43;100.00;98549.28;5031017;28;20034;-72
2023/12/26 01:33:07;;;;;;;4.00;0.98;;;;;;;8.53;100.00;98560.56;5030038;28;20075;-72
2023/12/26 01:35:32;;;;;;;3.13;1.02;;;;;;;8.53;100.00;98563.25;5032100;28;20509;-72
2023/12/26 01:37:57;;;;;;;5.93;1.13;;;;;;;8.55;100.00;98580.91;5031832;28;20099;-72
2023/12/26 01:40:23;;;;;;;4.28;0.93;;;;;;;8.48;100.00;98574.63;5030737;28;20116;-72
2023/12/26 01:42:49;;;;;;;4.40;0.90;;;;;;;8.49;100.00;98567.41;5031078;28;20104;-72
2023/12/26 01:45:14;;;;;;;2.10;0.60;;;;;;;8.58;100.00;98558.13;5030727;28;20120;-72
2023/12/26 01:47:40;;;;;;;1.92;0.70;;;;;;;8.58;100.00;98549.19;5031529;28;20532;-72
2023/12/26 01:50:07;;;;;;;3.03;0.80;;;;;;;8.83;100.00;98577.41;5031476;28;20040;-72
2023/12/26 01:52:35;;;;;;;2.90;1.02;;;;;;;8.74;100.00;98574.00;5030654;28;20116;-73
2023/12/26 01:55:01;;;;;;;1.83;0.55;;;;;;;8.63;100.00;98544.06;5029565;28;20029;-72
2023/12/26 01:57:27;;;;;;;1.65;0.68;;;;;;;8.65;100.00;98568.97;5031611;28;20021;-72
2023/12/26 01:59:52;;;;;;;1.25;0.43;;;;;;;8.72;100.00;98569.81;5030954;28;20397;-72
2023/12/26 02:02:18;;;;;;;4.43;0.82;;;;;;;8.76;100.00;98579.19;5031839;28;20033;-72
2023/12/26 02:04:44;;;;;;;2.70;0.73;;;;;;;8.74;100.00;98573.16;5031010;28;20371;-72
2023/12/26 02:07:09;;;;;;;2.08;0.60;;;;;;;8.63;100.00;98565.63;5032061;28;20091;-72
2023/12/26 02:09:35;;;;;;;2.90;0.55;;;;;;;8.77;100.00;98584.38;5031798;28;20036;-74
2023/12/26 02:12:01;;;;;;;0.93;0.47;;;;;;;8.67;100.00;98573.13;5029198;28;20034;-73
2023/12/26 02:14:26;;;;;;;2.20;0.90;;;;;;;8.79;100.00;98581.50;5025633;28;20022;-73
2023/12/26 02:16:54;;;;;;;1.15;0.50;;;;;;;8.78;100.00;98567.19;5033823;28;20037;-73
2023/12/26 02:19:20;;;;;;;3.65;0.80;;;;;;;8.74;100.00;98573.16;5034529;28;20084;-73
2023/12/26 02:21:45;;;;;;;1.58;0.57;;;;;;;8.80;100.00;98587.72;5034012;28;20028;-73
2023/12/26 02:24:11;;;;;;;2.35;0.60;;;;;;;8.77;100.00;98583.56;5032707;28;20382;-73
2023/12/26 02:26:40;;;;;;;0.57;0.38;;;;;;;8.80;100.00;98577.75;5029769;28;20037;-73
2023/12/26 02:29:06;;;;;;;2.15;0.57;;;;;;;8.56;100.00;98560.19;5021618;28;20029;-73
2023/12/26 02:31:37;;;;;;;1.23;0.60;;;;;;;8.81;100.00;98592.09;5034870;28;20120;-73
2023/12/26 02:34:22;;;;;;;1.88;0.70;;;;;;;8.80;100.00;98585.84;5032737;28;20056;-73
2023/12/26 02:36:49;;;;;;;0.98;0.40;;;;;;;8.72;100.00;98583.31;5030307;28;20021;-74
2023/12/26 02:39:14;;;;;;;2.95;0.75;;;;;;;8.62;100.00;98554.00;5021899;28;20405;-73
2023/12/26 02:41:40;;;;;;;3.03;0.90;;;;;;;8.67;100.00;98577.66;5034490;28;20116;-73
2023/12/26 02:44:06;;;;;;;1.98;0.60;;;;;;;8.70;100.00;98583.53;5033375;28;20095;-73
2023/12/26 02:46:31;;;;;;;3.03;0.50;;;;;;;8.72;100.00;98596.78;5033255;28;20173;-73
2023/12/26 02:48:56;;;;;;;0.57;0.30;;;;;;;8.62;100.00;98582.81;5033830;28;20029;-73
2023/12/26 02:51:22;;;;;;;3.25;0.70;;;;;;;8.72;100.00;98597.66;5034207;28;20044;-73
2023/12/26 02:53:47;;;;;;;1.92;0.60;;;;;;;8.72;100.00;98600.34;5032676;28;20060;-73
2023/12/26 02:56:12;;;;;;;2.95;0.70;;;;;;;8.79;100.00;98603.06;5030864;28;20029;-73
2023/12/26 02:58:38;;;;;;;1.45;0.60;;;;;;;8.80;100.00;98599.34;5033693;28;20021;-72
2023/12/26 03:01:04;;;;;;;4.35;0.60;;;;;;;8.79;100.00;98586.91;5033796;28;20040;-73
2023/12/26 03:03:29;;;;;;;4.50;0.82;;;;;;;8.89;100.00;98581.97;5033864;28;20025;-73
2023/12/26 03:05:54;;;;;;;4.72;1.00;;;;;;;8.74;100.00;98559.69;5028388;28;20026;-73
2023/12/26 03:08:20;;;;;;;1.92;0.63;;;;;;;8.78;100.00;98559.09;5032602;28;20413;-73
2023/12/26 03:10:45;;;;;;;2.92;0.80;;;;;;;8.86;100.00;98573.47;5028622;28;20474;-73
2023/12/26 03:13:11;;;;;;;2.08;0.63;;;;;;;8.82;100.00;98564.09;5031421;28;20048;-73
2023/12/26 03:15:36;;;;;;;4.40;0.90;;;;;;;8.86;100.00;98584.25;5031399;28;20032;-74
2023/12/26 03:18:01;;;;;;;1.45;0.52;;;;;;;8.83;100.00;98572.00;5032340;28;20116;-73
2023/12/26 03:20:27;;;;;;;1.73;0.70;;;;;;;8.91;100.00;98595.28;5033696;28;20469;-73
2023/12/26 03:22:52;;;;;;;3.65;0.60;;;;;;;8.91;100.00;98581.81;5021266;28;20022;-73
2023/12/26 03:25:18;;;;;;;4.13;0.82;;;;;;;8.90;100.00;98572.84;5031770;28;20017;-73
2023/12/26 03:27:43;;;;;;;6.57;0.75;;;;;;;8.90;100.00;98575.53;5034521;28;20030;-73
2023/12/26 03:30:09;;;;;;;1.98;0.65;;;;;;;8.79;100.00;98565.31;5033393;28;20036;-73
2023/12/26 03:32:34;;;;;;;3.83;0.70;;;;;;;8.87;100.00;98570.56;5033785;28;20029;-73
2023/12/26 03:35:00;;;;;;;4.82;1.48;;;;;;;8.85;100.00;98571.78;5029060;28;20017;-73
2023/12/26 03:37:25;;;;;;;3.78;0.98;;;;;;;8.89;100.00;98581.97;5033590;28;20111;-73
2023/12/26 03:39:50;;;;;;;3.08;0.75;;;;;;;8.89;100.00;98581.97;5031619;28;20037;-74
2023/12/26 03:42:15;;;;;;;3.03;0.93;;;;;;;8.86;100.00;98571.59;5034194;28;20025;-73
2023/12/26 03:44:41;;;;;;;2.38;0.90;;;;;;;8.92;100.00;98580.75;5030554;28;20044;-73
2023/12/26 03:47:06;;;;;;;3.47;1.05;;;;;;;8.91;100.00;98585.31;5032881;28;20037;-73
2023/12/26 03:49:32;;;;;;;3.10;0.75;;;;;;;8.94;100.00;98579.53;5033331;28;20025;-72
2023/12/26 03:51:57;;;;;;;2.95;0.77;;;;;;;8.90;100.00;98564.75;5032150;28;20079;-72
2023/12/26 03:54:22;;;;;;;6.53;1.00;;;;;;;8.97;100.00;98600.72;5027075;28;20496;-72
2023/12/26 03:56:48;;;;;;;5.25;1.00;;;;;;;8.83;100.00;98558.50;5031519;28;20045;-72
2023/12/26 03:59:14;;;;;;;4.75;1.00;;;;;;;8.80;100.00;98556.19;5032208;28;20036;-71
2023/12/26 04:01:40;;;;;;;4.63;0.55;;;;;;;8.97;100.00;98591.78;5032820;28;20060;-72
2023/12/26 04:04:05;;;;;;;4.22;0.80;;;;;;;9.02;100.00;98605.53;5031615;28;20432;-72
2023/12/26 04:06:30;;;;;;;1.95;0.90;;;;;;;9.00;100.00;98594.91;5027898;28;20034;-72
2023/12/26 04:08:56;;;;;;;2.88;0.80;;;;;;;8.96;100.00;98584.72;5019732;28;20523;-73
2023/12/26 04:11:21;;;;;;;1.00;0.52;;;;;;;8.90;100.00;98572.84;5031853;28;20025;-73
2023/12/26 04:13:46;;;;;;;4.05;1.05;;;;;;;9.00;100.00;98586.81;5032605;28;20489;-73
2023/12/26 04:16:12;;;;;;;3.90;1.20;;;;;;;8.92;100.00;98586.16;5030730;28;20026;-72
2023/12/26 04:18:37;;;;;;;5.60;0.80;;;;;;;9.05;100.00;98607.00;5019568;28;20103;-73
2023/12/26 04:21:02;;;;;;;8.45;1.33;;;;;;;9.05;100.00;98604.28;5020630;28;20030;-73
2023/12/26 04:23:28;;;;;;;3.15;0.73;;;;;;;8.93;100.00;98587.81;5031445;28;20026;-73
2023/12/26 04:25:53;;;;;;;5.97;1.08;;;;;;;9.07;100.00;98600.38;5032547;28;20037;-73
2023/12/26 04:28:18;;;;;;;0.80;0.50;;;;;;;9.11;100.00;98609.72;5031940;28;20021;-73
2023/12/26 04:30:44;;;;;;;5.50;0.82;;;;;;;9.11;100.00;98606.19;5031637;28;20541;-73
2023/12/26 04:33:10;;;;;;;5.15;0.70;;;;;;;9.09;100.00;98608.25;5030017;28;20053;-73
2023/12/26 04:35:36;;;;;;;3.30;0.65;;;;;;;9.04;100.00;98605.31;5014130;28;20022;-73
2023/12/26 04:38:01;;;;;;;6.10;0.98;;;;;;;8.95;100.00;98583.06;5033420;28;20032;-73
2023/12/26 04:40:27;;;;;;;8.68;1.10;;;;;;;9.10;100.00;98607.22;5042252;28;20033;-73
2023/12/26 04:42:52;;;;;;;7.40;0.82;;;;;;;8.97;100.00;98587.22;5047637;28;20053;-73
2023/12/26 04:45:18;;;;;;;2.60;0.80;;;;;;;9.08;100.00;98607.41;5033986;28;20033;-73
2023/12/26 04:47:43;;;;;;;1.65;0.70;;;;;;;9.07;100.00;98607.63;5032351;28;20018;-73
2023/12/26 04:50:08;;;;;;;6.88;0.90;;;;;;;8.94;100.00;98589.50;5032833;28;20033;-73
2023/12/26 04:52:34;;;;;;;6.43;1.25;;;;;;;9.09;100.00;98602.84;5045865;28;20124;-73
2023/12/26 04:54:59;;;;;;;9.55;1.27;;;;;;;9.11;100.00;98603.47;5048369;28;20040;-73
2023/12/26 04:57:25;;;;;;;4.32;0.90;;;;;;;8.97;100.00;98578.28;5036477;28;20029;-73
2023/12/26 04:59:51;;;;;;;3.33;0.88;;;;;;;9.09;100.00;98609.09;5031482;28;20478;-73
2023/12/26 05:02:16;;;;;;;8.23;1.30;;;;;;;9.09;100.00;98600.16;5032606;28;20048;-73
2023/12/26 05:04:41;;;;;;;4.25;0.90;;;;;;;9.07;100.00;98604.94;5031307;28;20091;-73
2023/12/26 05:07:08;;;;;;;3.85;0.80;;;;;;;9.05;100.00;98601.59;5033389;28;20064;-73
2023/12/26 05:09:33;;;;;;;5.25;1.17;;;;;;;8.95;100.00;98591.16;5034014;28;20049;-73
2023/12/26 05:11:59;;;;;;;3.10;0.70;;;;;;;9.04;100.00;98608.88;5034697;28;20033;-73
2023/12/26 05:14:24;;;;;;;4.30;0.77;;;;;;;9.06;100.00;98614.03;5034349;28;20029;-72
2023/12/26 05:16:50;;;;;;;6.18;1.00;;;;;;;9.09;100.00;98605.53;5032661;28;20030;-73
2023/12/26 05:19:16;;;;;;;11.43;1.13;;;;;;;9.04;100.00;98603.47;5031645;28;20032;-73
2023/12/26 05:21:42;;;;;;;4.93;0.82;;;;;;;8.88;100.00;98576.78;5032801;28;20034;-74
2023/12/26 05:24:07;;;;;;;5.10;0.90;;;;;;;9.03;100.00;98607.19;5031803;28;20117;-72
2023/12/26 05:26:43;;;;;;;6.10;0.82;;;;;;;9.02;100.00;98591.19;5031969;28;20533;-73
2023/12/26 05:29:09;;;;;;;11.43;1.60;;;;;;;9.03;100.00;98619.84;5032431;28;20545;-73
2023/12/26 05:31:35;;;;;;;0.82;0.60;;;;;;;8.99;100.00;98612.16;5032207;28;20506;-73
2023/12/26 05:34:03;;;;;;;4.90;1.25;;;;;;;8.99;100.00;98616.72;5025228;28;20029;-73
2023/12/26 05:36:29;;;;;;;3.13;0.80;;;;;;;8.84;100.00;98610.59;5031781;28;20021;-73
2023/12/26 05:38:54;;;;;;;5.32;1.33;;;;;;;8.93;100.00;98614.78;5031776;28;20095;-73
2023/12/26 05:41:19;;;;;;;3.97;0.80;;;;;;;8.89;100.00;98602.75;5031396;28;20037;-73
2023/12/26 05:43:45;;;;;;;5.32;1.00;;;;;;;8.71;100.00;98587.06;5033885;28;20029;-73
2023/12/26 05:46:10;;;;;;;4.28;1.00;;;;;;;8.92;100.00;98632.84;5032585;28;20048;-72
2023/12/26 05:48:35;;;;;;;4.70;1.17;;;;;;;8.94;100.00;98625.41;5031974;28;20109;-72
2023/12/26 05:51:01;;;;;;;5.03;0.90;;;;;;;8.97;100.00;98626.88;5028022;28;20025;-73
2023/12/26 05:53:29;;;;;;;5.28;0.80;;;;;;;8.94;100.00;98620.00;5034274;28;20028;-73
2023/12/26 05:55:55;;;;;;;3.97;1.48;;;;;;;8.96;100.00;98630.56;5034956;28;20026;-74
2023/12/26 05:58:20;;;;;;;4.18;1.13;;;;;;;8.95;100.00;98621.66;5035415;28;20057;-73
2023/12/26 06:00:46;;;;;;;4.15;0.70;;;;;;;8.96;100.00;98623.34;5032894;28;20036;-73
2023/12/26 06:03:11;;;;;;;3.47;0.82;;;;;;;8.92;100.00;98616.66;5034750;28;20049;-73
2023/12/26 06:05:36;;;;;;;5.78;1.13;;;;;;;8.85;100.00;98607.69;5034079;28;20029;-73
2023/12/26 06:08:02;;;;;;;3.92;0.88;;;;;;;8.93;100.00;98625.56;5030960;28;20116;-73
2023/12/26 06:10:27;;;;;;;3.78;1.05;;;;;;;8.88;100.00;98630.72;5034053;28;20025;-73
2023/12/26 06:12:52;;;;;;;7.65;1.10;;;;;;;8.84;100.00;98637.56;5035231;28;20034;-72
2023/12/26 06:15:18;;;;;;;5.13;0.98;;;;;;;8.87;100.00;98638.00;5034757;28;20078;-73
2023/12/26 06:17:43;;;;;;;5.40;1.08;;;;;;;8.75;100.00;98628.75;5034036;28;20113;-73
2023/12/26 06:20:08;;;;;;;5.90;0.85;;;;;;;8.84;100.00;98645.66;5034828;28;20033;-73
2023/12/26 06:22:34;;;;;;;2.95;0.75;;;;;;;8.86;100.00;98647.13;5035135;28;20132;-73
2023/12/26 06:24:59;;;;;;;3.83;0.75;;;;;;;8.79;100.00;98643.53;5034130;28;20034;-73
2023/12/26 06:27:24;;;;;;;2.85;0.82;;;;;;;8.83;100.00;98634.03;5033065;28;20021;-73
2023/12/26 06:29:50;;;;;;;3.10;0.95;;;;;;;8.91;100.00;98639.28;5034701;28;20029;-73
2023/12/26 06:32:16;;;;;;;5.20;0.80;;;;;;;8.94;100.00;98628.09;5033473;28;20061;-73
2023/12/26 06:34:41;;;;;;;6.43;1.45;;;;;;;8.93;100.00;98620.19;5034895;28;20025;-73
2023/12/26 06:37:06;;;;;;;7.70;1.17;;;;;;;8.88;100.00;98626.19;5033432;28;20029;-73
2023/12/26 06:39:32;;;;;;;3.70;1.13;;;;;;;8.92;100.00;98650.91;5034473;28;20029;-73
2023/12/26 06:41:57;;;;;;;5.80;0.70;;;;;;;8.81;100.00;98630.69;5034252;28;20083;-77
2023/12/26 06:44:22;;;;;;;4.35;0.90;;;;;;;8.81;100.00;98627.19;5027505;28;20025;-77
2023/12/26 06:46:48;;;;;;;6.25;1.27;;;;;;;8.96;100.00;98636.84;5030608;28;20036;-76
2023/12/26 06:49:16;;;;;;;8.05;1.58;;;;;;;8.79;100.00;98621.97;5033671;28;20021;-77
2023/12/26 06:51:42;;;;;;;5.03;0.98;;;;;;;9.02;100.00;98664.06;5031815;28;20030;-75
2023/12/26 06:54:07;;;;;;;5.22;0.93;;;;;;;9.00;100.00;98664.25;5036284;28;20025;-79
2023/12/26 06:56:33;;;;;;;7.70;0.85;;;;;;;8.97;100.00;98673.56;5031567;28;20025;-78
2023/12/26 06:58:59;;;;;;;5.90;0.75;;;;;;;8.92;100.00;98676.00;5028759;28;20022;-77
2023/12/26 07:01:25;;;;;;;4.25;0.90;;;;;;;8.79;100.00;98662.44;5030123;28;20409;-77
2023/12/26 07:03:50;;;;;;;5.32;0.80;;;;;;;8.96;100.00;98679.16;5027954;28;20043;-77
2023/12/26 07:06:15;;;;;;;8.45;1.13;;;;;;;8.96;100.00;98680.00;5031471;28;20033;-78
2023/12/26 07:08:41;;;;;;;6.40;1.10;;;;;;;9.08;100.00;98684.84;5022224;28;20052;-76
2023/12/26 07:11:06;;;;;;;9.60;1.02;;;;;;;8.98;100.00;98672.53;5031542;28;20033;-76
2023/12/26 07:13:31;;;;;;;4.05;1.20;;;;;;;9.04;100.00;98675.47;5020941;28;20094;-75
2023/12/26 07:19:19;;;;;;;5.93;0.90;;;;;;;9.19;100.00;98705.88;5908812;23;20050;-75
2023/12/26 07:21:44;;;;;;;8.23;0.95;;;;;;;9.17;100.00;98689.91;5018984;28;20057;-75
2023/12/26 07:24:09;;;;;;;3.75;1.20;;;;;;;9.18;100.00;98705.06;5029703;28;20037;-75
2023/12/26 07:26:35;;;;;;;7.68;0.82;;;;;;;9.13;100.00;98702.13;5068847;28;20022;-73
2023/12/26 07:29:00;;;;;;;4.32;0.90;;;;;;;9.20;100.00;98708.41;5049507;28;20032;-70
2023/12/26 07:34:00;;;;;;;5.90;0.90;;;;;;;9.32;100.00;98724.06;5009960;28;20061;-74
2023/12/26 07:36:25;;;;;;;5.00;1.02;;;;;;;9.25;100.00;98721.31;5013309;28;20057;-73
2023/12/26 07:38:51;;;;;;;7.22;1.05;;;;;;;9.19;100.00;98716.69;5010032;28;20137;-72
2023/12/26 07:41:23;;;;;;;7.43;1.35;;;;;;;9.26;100.00;98731.06;4990372;28;20031;-79
2023/12/26 07:43:51;;;;;;;5.93;0.98;;;;;;;9.11;100.00;98700.66;4993210;28;20514;-75
2023/12/26 07:46:16;;;;;;;6.38;1.08;;;;;;;9.28;100.00;98729.03;4997245;28;20031;-74
2023/12/26 07:48:42;;;;;;;5.93;1.13;;;;;;;9.05;100.00;98694.16;5002552;23;20030;-79
2023/12/26 07:51:10;;;;;;;6.18;1.20;;;;;;;9.36;100.00;98758.56;5013221;28;20040;-78
2023/12/26 07:53:35;;;;;;;11.70;1.50;;;;;;;9.27;100.00;98750.81;5013989;28;20386;-78
2023/12/26 07:56:04;;;;;;;11.35;1.60;;;;;;;9.29;100.00;98751.44;5022093;28;20025;-79
2023/12/26 07:58:30;;;;;;;3.53;1.10;;;;;;;9.25;100.00;98737.53;5011856;28;20022;-79
2023/12/26 08:00:56;;;;;;;6.57;1.05;;;;;;;9.22;100.00;98716.28;4994893;28;20146;-78
2023/12/26 08:03:33;;;;;;;3.20;0.88;;;;;;;9.41;100.00;98744.47;4997455;28;20648;-82
2023/12/26 08:05:59;;;;;;;7.90;1.30;;;;;;;9.28;100.00;98729.03;4989559;28;20517;-75
2023/12/26 08:08:24;;;;;;;7.65;1.20;;;;;;;9.46;100.00;98760.06;4994709;28;20030;-75
2023/12/26 08:10:49;;;;;;;7.93;1.10;;;;;;;9.59;100.00;98779.09;4992989;28;20101;-75
2023/12/26 08:13:14;;;;;;;4.63;1.05;;;;;;;9.42;100.00;98755.06;4988231;28;20035;-75
2023/12/26 08:15:40;;;;;;;5.85;1.00;;;;;;;9.56;100.00;98779.47;4994649;28;20109;-75
2023/12/26 08:18:05;;;;;;;5.35;1.00;;;;;;;9.56;100.00;98774.06;5001325;28;20048;-75
2023/12/26 08:20:33;;;;;;;6.70;0.85;;;;;;;9.55;100.00;98769.69;5002556;28;20535;-80
2023/12/26 08:22:59;;;;;;;8.50;0.85;;;;;;;9.51;100.00;98758.47;4995458;28;20383;-79
2023/12/26 08:25:24;;;;;;;10.93;1.88;;;;;;;9.69;100.00;98776.84;5005948;28;20036;-78
2023/12/26 08:27:50;;;;;;;7.28;0.98;;;;;;;9.49;100.00;98755.13;4995393;28;20022;-80
2023/12/26 08:30:16;;;;;;;9.65;1.20;;;;;;;9.72;100.00;98775.63;5031170;28;20021;-80
2023/12/26 08:32:41;;;;;;;7.32;1.00;;;;;;;9.69;100.00;98776.84;5020235;28;20034;-79
2023/12/26 08:35:07;;;;;;;5.30;1.15;;;;;;;9.68;100.00;98788.69;5008299;28;20034;-77
2023/12/26 08:37:32;;;;;;;3.28;0.80;;;;;;;9.66;100.00;98804.25;4995311;28;20034;-76
2023/12/26 08:39:57;;;;;;;3.30;0.85;;;;;;;9.67;100.00;98795.16;5011581;28;20053;-78
2023/12/26 08:42:23;;;;;;;4.32;1.02;;;;;;;9.70;100.00;98800.16;4986673;28;20073;-75
2023/12/26 08:44:48;;;;;;;4.63;1.02;;;;;;;9.78;100.00;98797.28;4993177;28;20031;-77
2023/12/26 08:47:13;;;;;;;9.85;1.92;;;;;;;9.70;100.00;98775.84;4992606;28;20030;-78
2023/12/26 08:49:39;;;;;;;1.90;0.80;;;;;;;9.70;100.00;98808.25;4996500;28;20030;-79
2023/12/26 08:52:04;;;;;;;6.13;0.82;;;;;;;9.56;100.00;98791.13;4996990;28;20037;-74
2023/12/26 08:54:31;;;;;;;5.65;1.08;;;;;;;9.64;100.00;98801.78;5002568;28;20018;-77
2023/12/26 08:56:56;;;;;;;7.68;1.38;;;;;;;9.69;100.00;98825.47;5003802;28;20170;-77
2023/12/26 08:59:22;;;;;;;3.55;1.00;;;;;;;9.60;100.00;98821.28;4996084;28;20483;-77
2023/12/26 09:01:47;;;;;;;6.40;1.25;;;;;;;9.71;100.00;98818.00;5011178;28;20033;-79
2023/12/26 09:04:12;;;;;;;5.35;1.10;;;;;;;9.71;100.00;98839.63;5014357;28;20026;-77
2023/12/26 09:06:37;;;;;;;9.13;1.00;;;;;;;9.68;100.00;98845.44;4993139;28;20038;-77
2023/12/26 09:09:03;;;;;;;5.45;1.23;;;;;;;9.50;100.00;98835.09;4997256;28;20454;-77
2023/12/26 09:11:28;;;;;;;6.68;1.13;;;;;;;9.69;100.00;98838.97;4992137;28;20517;-74
2023/12/26 09:13:54;;;;;;;5.75;1.00;;;;;;;9.50;100.00;98824.31;4985132;28;20395;-74
2023/12/26 09:16:19;;;;;;;2.40;0.80;;;;;;;9.59;100.00;98849.31;4982028;28;20018;-77
2023/12/26 09:18:45;;;;;;;4.07;0.90;;;;;;;9.68;100.00;98864.34;5005894;28;20056;-78
2023/12/26 09:21:10;;;;;;;2.22;0.75;;;;;;;9.44;100.00;98839.44;4995621;28;20037;-78
2023/12/26 09:23:37;;;;;;;4.63;1.30;;;;;;;9.48;100.00;98871.44;4999598;28;20383;-77
2023/12/26 09:26:03;;;;;;;5.63;1.10;;;;;;;9.63;100.00;98874.91;4996246;28;20064;-74
2023/12/26 09:28:29;;;;;;;5.35;0.85;;;;;;;9.64;100.00;98879.25;4998389;28;20026;-73
2023/12/26 09:30:54;;;;;;;8.15;0.80;;;;;;;9.57;100.00;98876.50;4996581;28;20325;-73
2023/12/26 09:33:19;;;;;;;2.60;0.85;;;;;;;9.70;100.00;98889.28;4996631;28;20057;-72
2023/12/26 09:35:45;;;;;;;3.15;0.80;;;;;;;9.49;100.00;98878.53;5000435;28;20018;-73
2023/12/26 09:38:10;;;;;;;7.65;1.20;;;;;;;9.52;100.00;98865.47;5002351;28;20030;-73
2023/12/26 09:40:37;;;;;;;3.40;0.90;;;;;;;9.40;100.00;98857.03;4986225;28;20064;-74
2023/12/26 09:43:03;;;;;;;4.03;0.80;;;;;;;9.57;100.00;98894.59;4993219;28;20030;-73
2023/12/26 09:45:30;;;;;;;5.90;1.15;;;;;;;9.52;100.00;98891.63;4997508;28;20133;-77
2023/12/26 09:47:57;;;;;;;7.70;1.20;;;;;;;9.42;100.00;98871.19;4996882;28;20387;-81
2023/12/26 09:50:22;;;;;;;6.15;1.10;;;;;;;9.62;100.00;98909.19;4996513;28;20026;-74
2023/12/26 09:52:52;;;;;;;3.33;0.73;;;;;;;9.68;100.00;98906.72;4994402;28;20395;-73
2023/12/26 09:55:19;;;;;;;2.70;0.88;;;;;;;9.60;100.00;98907.69;4994845;28;20017;-74
2023/12/26 09:57:45;;;;;;;4.00;1.17;;;;;;;9.55;100.00;98913.69;5002955;28;20030;-74
2023/12/26 10:00:11;;;;;;;6.80;0.90;;;;;;;9.46;100.00;98908.59;4993567;28;20029;-73
2023/12/26 10:02:36;;;;;;;7.88;1.33;;;;;;;9.49;100.00;98925.28;4981135;28;20134;-74
2023/12/26 10:05:01;;;;;;;4.72;1.35;;;;;;;9.48;100.00;98937.09;4999154;28;20018;-73
2023/12/26 10:07:28;;;;;;;3.20;0.90;;;;;;;9.55;100.00;98939.88;5007082;28;20026;-75
2023/12/26 10:09:54;;;;;;;5.90;0.80;;;;;;;9.42;100.00;98906.28;4998431;28;20034;-74
2023/12/26 10:12:19;;;;;;;9.15;1.30;;;;;;;9.33;100.00;98902.06;4992070;28;20391;-74
2023/12/26 10:14:45;;;;;;;9.40;0.80;;;;;;;9.37;100.00;98906.03;5002542;28;20033;-74
2023/12/26 10:17:12;;;;;;;7.57;1.42;;;;;;;9.44;100.00;98917.75;4995137;28;20018;-74
2023/12/26 10:19:38;;;;;;;2.95;0.80;;;;;;;9.32;100.00;98900.38;4994009;28;20402;-75
2023/12/26 10:22:03;;;;;;;2.65;0.88;;;;;;;9.53;100.00;98913.03;4994639;28;20030;-74
2023/12/26 10:24:29;;;;;;;3.72;0.60;;;;;;;9.21;100.00;98874.72;4991790;28;20484;-74
2023/12/26 10:26:54;;;;;;;5.03;1.05;;;;;;;9.49;100.00;98913.63;5010926;28;20441;-74
2023/12/26 10:29:20;;;;;;;3.88;0.60;;;;;;;9.46;100.00;98911.28;4994404;28;20022;-74
2023/12/26 10:31:46;;;;;;;4.25;0.77;;;;;;;9.59;100.00;98924.94;4994927;28;20026;-74
2023/12/26 10:34:19;;;;;;;4.03;0.85;;;;;;;9.71;100.00;98933.34;4992897;28;20046;-74
2023/12/26 10:36:49;;;;;;;4.97;0.80;;;;;;;9.66;100.00;98923.94;5010941;28;20025;-74
2023/12/26 10:39:17;;;;;;;5.10;0.70;;;;;;;9.55;100.00;98929.88;5014711;28;20021;-74
2023/12/26 10:41:43;;;;;;;5.40;0.80;;;;;;;9.51;100.00;98938.56;4999264;28;20037;-74
2023/12/26 10:44:09;;;;;;;2.22;0.60;;;;;;;9.55;100.00;98937.16;4989047;28;20407;-74
2023/12/26 10:46:35;;;;;;;3.33;0.82;;;;;;;9.48;100.00;98934.38;4992545;28;20026;-74
2023/12/26 10:49:05;;;;;;;4.03;0.60;;;;;;;9.36;100.00;98944.03;4994166;28;20034;-74
2023/12/26 10:51:31;;;;;;;2.50;0.75;;;;;;;9.43;100.00;98937.69;4993928;28;20515;-74
2023/12/26 10:54:04;;;;;;;7.75;0.70;;;;;;;9.15;100.00;98909.78;5003285;28;20054;-74
2023/12/26 10:56:31;;;;;;;6.45;0.68;;;;;;;9.31;100.00;98941.09;5003334;28;20070;-74
2023/12/26 10:58:58;;;;;;;3.08;0.80;;;;;;;9.36;100.00;98944.88;4992977;28;20116;-74
2023/12/26 11:01:24;;;;;;;3.70;0.57;;;;;;;9.27;100.00;98910.91;5003797;28;20025;-74
2023/12/26 11:03:50;;;;;;;4.45;0.93;;;;;;;9.59;100.00;98933.06;4997145;28;20053;-74
2023/12/26 11:06:16;;;;;;;4.95;1.05;;;;;;;9.64;100.00;98933.28;4992493;28;20222;-74
2023/12/26 11:08:41;;;;;;;2.70;0.90;;;;;;;9.75;100.00;98935.47;5000720;28;20623;-74
2023/12/26 11:11:06;;;;;;;3.45;0.90;;;;;;;9.73;100.00;98924.03;4987440;28;20025;-74
2023/12/26 11:13:32;;;;;;;4.15;0.90;;;;;;;9.80;100.00;98921.38;5012830;28;20034;-76
2023/12/26 11:15:58;;;;;;;6.70;1.00;;;;;;;9.87;100.00;98933.91;4991833;28;20026;-76
2023/12/26 11:18:25;;;;;;;2.63;0.75;;;;;;;9.66;100.00;98920.41;4990710;28;20105;-74
2023/12/26 11:20:52;;;;;;;1.42;0.60;;;;;;;9.72;100.00;98935.88;4995576;28;20026;-75
2023/12/26 11:23:19;;;;;;;3.78;0.73;;;;;;;9.68;100.00;98934.56;4993890;28;20037;-74
2023/12/26 11:25:45;;;;;;;2.05;0.73;;;;;;;9.56;100.00;98890.19;4992454;28;20052;-75
2023/12/26 11:28:11;;;;;;;1.40;0.55;;;;;;;9.71;100.00;98917.97;5008299;28;20089;-73
2023/12/26 11:30:36;;;;;;;3.95;1.33;;;;;;;9.76;100.00;98942.53;4990822;28;20142;-74
2023/12/26 11:33:02;;;;;;;3.30;0.70;;;;;;;9.72;100.00;98933.16;4989241;28;20061;-74